Time;durP1;ratioP1;P1;durP2;ratioP2;P2;SDS_P1;SDS_P2;PMS_P1;PMS_P2;Temp;Humidity;BMP_temperature;BMP_pressure;BME280_temperature;BME280_humidity;BME280_pressure;Samples;Min_cycle;Max_cycle;Signal;HPM_P1;HPM_P2
2024/04/18 00:01:53;;;;;;;;;;;;;;;16.66;46.27;99261.84;5386543;26;1240;-45
2024/04/18 00:04:19;;;;;;;;;;;;;;;16.66;45.59;99270.91;5386690;26;1200;-46
2024/04/18 00:06:44;;;;;;;;;;;;;;;16.59;45.21;99268.56;5386647;26;1132;-43
2024/04/18 00:09:09;;;;;;;;;;;;;;;17.28;46.72;99264.69;5386685;26;1196;-46
2024/04/18 00:11:35;;;;;;;;;;;;;;;16.82;46.89;99265.03;5386094;26;1104;-46
2024/04/18 00:14:10;;;;;;;;;;;;;;;17.55;47.28;99251.09;5387606;26;1161;-47
2024/04/18 00:16:35;;;;;;;;;;;;;;;17.23;48.10;99251.09;5385891;26;1303;-44
2024/04/18 00:19:16;;;;;;;;;;;;;;;16.95;47.38;99264.16;5386296;26;1833;-45
2024/04/18 00:21:57;;;;;;;;;;;;;;;16.81;46.55;99260.66;5386193;26;1361;-49
2024/04/18 00:24:28;;;;;;;;;;;;;;;16.69;45.99;99292.22;5386348;26;1264;-45
2024/04/18 00:26:54;;;;;;;;;;;;;;;16.62;45.63;99280.88;5384007;26;1176;-47
2024/04/18 00:29:19;;;;;;;;;;;;;;;16.81;46.08;99293.59;5386125;26;1121;-46
2024/04/18 00:31:45;;;;;;;;;;;;;;;17.32;47.44;99275.03;5385796;26;1247;-45
2024/04/18 00:34:30;;;;;;;;;;;;;;;16.84;47.29;99265.53;5386213;26;1648;-48
2024/04/18 00:36:55;;;;;;;;;;;;;;;16.72;46.41;99247.69;5386117;26;1278;-46
2024/04/18 00:39:21;;;;;;;;;;;;;;;16.60;45.89;99261.16;5385615;26;1822;-45
2024/04/18 00:41:57;;;;;;;;;;;;;;;17.28;46.40;99264.69;5385853;26;1271;-45
2024/04/18 00:44:31;;;;;;;;;;;;;;;17.05;47.42;99261.16;5385910;26;1311;-47
2024/04/18 00:47:13;;;;;;;;;;;;;;;16.72;46.68;99269.63;5385490;26;1192;-45
2024/04/18 00:49:38;;;;;;;;;;;;;;;16.51;46.32;99258.34;5386099;26;1342;-47
2024/04/18 00:52:04;;;;;;;;;;;;;;;16.48;45.69;99258.13;5385578;26;1179;-44
2024/04/18 00:54:30;;;;;;;;;;;;;;;16.78;45.93;99262.09;5385597;26;1215;-48
2024/04/18 00:56:58;;;;;;;;;;;;;;;17.06;46.98;99278.47;5385520;26;1284;-47
2024/04/18 00:59:26;;;;;;;;;;;;;;;16.67;47.02;99291.72;5385557;26;1867;-48
2024/04/18 01:02:11;;;;;;;;;;;;;;;16.70;46.11;99304.81;5385812;26;1271;-47
2024/04/18 01:04:38;;;;;;;;;;;;;;;16.52;45.83;99292.88;5385661;26;1366;-46
2024/04/18 01:07:09;;;;;;;;;;;;;;;17.69;46.96;99284.75;5354849;26;1303;-45
2024/04/18 01:09:44;;;;;;;;;;;;;;;16.93;47.46;99300.19;5385493;26;1173;-45
2024/04/18 01:12:09;;;;;;;;;;;;;;;16.77;46.65;99287.91;5385563;26;1263;-48
2024/04/18 01:14:35;;;;;;;;;;;;;;;16.68;46.21;99290.59;5348681;26;1263;-43
2024/04/18 01:17:03;;;;;;;;;;;;;;;16.57;45.75;99302.94;5382514;26;1196;-44
2024/04/18 01:19:29;;;;;;;;;;;;;;;16.53;45.46;99308.22;5385300;26;1870;-47
2024/04/18 01:21:55;;;;;;;;;;;;;;;17.02;46.81;99302.97;5385741;26;1211;-45
2024/04/18 01:24:20;;;;;;;;;;;;;;;16.71;46.69;99292.72;5385435;26;1298;-47
2024/04/18 01:26:46;;;;;;;;;;;;;;;16.68;45.93;99318.03;5385660;26;1286;-49
2024/04/18 01:29:11;;;;;;;;;;;;;;;16.53;45.69;99326.63;5385138;26;1268;-49
2024/04/18 01:31:57;;;;;;;;;;;;;;;17.37;46.36;99297.69;5385136;26;1504;-47
2024/04/18 01:34:22;;;;;;;;;;;;;;;16.72;47.07;99294.34;5384939;26;1174;-46
2024/04/18 01:36:48;;;;;;;;;;;;;;;16.65;46.31;99280.25;5385145;26;1179;-49
2024/04/18 01:39:26;;;;;;;;;;;;;;;16.55;45.78;99288.69;5384662;26;1830;-43
2024/04/18 01:42:02;;;;;;;;;;;;;;;17.29;46.86;99295.72;5384748;26;1140;-48
2024/04/18 01:44:44;;;;;;;;;;;;;;;16.71;47.19;99273.50;5385030;26;1196;-47
2024/04/18 01:47:28;;;;;;;;;;;;;;;16.65;46.40;99258.28;5385211;26;1385;-47
2024/04/18 01:50:06;;;;;;;;;;;;;;;16.56;45.85;99251.91;5384595;26;1248;-48
2024/04/18 01:52:31;;;;;;;;;;;;;;;16.47;45.51;99253.78;5384600;26;1267;-48
2024/04/18 01:55:01;;;;;;;;;;;;;;;17.50;46.38;99259.47;5384601;26;1053;-47
2024/04/18 01:57:34;;;;;;;;;;;;;;;16.71;47.31;99281.72;5384693;26;1223;-50
2024/04/18 02:00:19;;;;;;;;;;;;;;;17.47;47.29;99293.88;5388162;26;1826;-45
2024/04/18 02:02:44;;;;;;;;;;;;;;;17.32;48.10;99308.84;5388072;26;1247;-47
2024/04/18 02:05:10;;;;;;;;;;;;;;;16.86;47.84;99319.00;5388096;26;1123;-45
2024/04/18 02:07:44;;;;;;;;;;;;;;;16.73;46.95;99306.94;5387858;26;1116;-46
2024/04/18 02:10:09;;;;;;;;;;;;;;;16.70;46.14;99314.97;5387544;26;1363;-45
2024/04/18 02:12:56;;;;;;;;;;;;;;;16.56;45.91;99306.78;5387707;26;1493;-48
2024/04/18 02:15:41;;;;;;;;;;;;;;;17.42;47.03;99261.06;5387869;26;1548;-45
2024/04/18 02:18:13;;;;;;;;;;;;;;;16.83;47.46;99261.16;5387340;26;1184;-44
2024/04/18 02:20:41;;;;;;;;;;;;;;;16.69;46.78;99267.53;5387629;26;1939;-45
2024/04/18 02:23:22;;;;;;;;;;;;;;;16.55;46.25;99264.00;5387849;26;1228;-46
2024/04/18 02:25:51;;;;;;;;;;;;;;;17.59;46.78;99247.38;5388070;26;1183;-44
2024/04/18 02:28:16;;;;;;;;;;;;;;;16.87;47.69;99256.66;5387682;26;1274;-47
2024/04/18 02:30:42;;;;;;;;;;;;;;;16.65;47.08;99291.22;5386835;26;1160;-49
2024/04/18 02:33:13;;;;;;;;;;;;;;;17.24;47.72;99315.09;5387741;26;1231;-44
2024/04/18 02:35:47;;;;;;;;;;;;;;;16.89;47.39;99306.63;5387947;26;1541;-46
2024/04/18 02:38:31;;;;;;;;;;;;;;;16.70;46.51;99273.81;5387920;26;1137;-48
2024/04/18 02:41:00;;;;;;;;;;;;;;;16.60;46.25;99256.44;5387264;26;1848;-47
2024/04/18 02:43:48;;;;;;;;;;;;;;;16.54;45.74;99249.47;5387031;26;1702;-45
2024/04/18 02:46:13;;;;;;;;;;;;;;;17.70;47.17;99264.41;5388381;26;1227;-46
2024/04/18 02:48:39;;;;;;;;;;;;;;;16.91;48.00;99280.47;5387462;26;1302;-50
2024/04/18 02:51:22;;;;;;;;;;;;;;;16.77;46.95;99279.69;5387154;26;1156;-45
2024/04/18 02:54:07;;;;;;;;;;;;;;;16.71;46.60;99287.22;5387055;26;1480;-45
2024/04/18 02:56:33;;;;;;;;;;;;;;;17.34;47.80;99287.34;5387468;26;1299;-49
2024/04/18 02:59:07;;;;;;;;;;;;;;;16.88;47.78;99261.03;5387087;26;1825;-47
2024/04/18 03:01:46;;;;;;;;;;;;;;;16.70;46.92;99262.84;5387215;26;1167;-43
2024/04/18 03:04:11;;;;;;;;;;;;;;;16.67;46.11;99261.50;5386882;26;1124;-47
2024/04/18 03:06:37;;;;;;;;;;;;;;;16.58;45.67;99263.41;5385320;26;1299;-46
2024/04/18 03:09:09;;;;;;;;;;;;;;;16.47;45.42;99260.06;5386375;26;1319;-45
2024/04/18 03:11:51;;;;;;;;;;;;;;;16.41;45.22;99255.81;5386813;26;1113;-46
2024/04/18 03:14:16;;;;;;;;;;;;;;;17.70;46.76;99250.66;5387731;26;1256;-46
2024/04/18 03:16:58;;;;;;;;;;;;;;;16.83;47.60;99236.44;5387110;26;1306;-43
2024/04/18 03:19:43;;;;;;;;;;;;;;;16.70;46.63;99262.84;5386676;26;1838;-45
2024/04/18 03:22:24;;;;;;;;;;;;;;;17.36;47.53;99298.84;5366912;26;1203;-46
2024/04/18 03:24:58;;;;;;;;;;;;;;;16.84;47.43;99318.47;5386596;26;1128;-46
2024/04/18 03:27:29;;;;;;;;;;;;;;;16.70;46.70;99298.50;5386987;26;1271;-49
2024/04/18 03:29:55;;;;;;;;;;;;;;;16.59;46.70;99290.53;5386770;26;1340;-49
2024/04/18 03:32:36;;;;;;;;;;;;;;;17.00;47.40;99307.16;5384654;26;1135;-49
2024/04/18 03:35:01;;;;;;;;;;;;;;;16.68;47.01;99328.22;5386521;26;1466;-48
2024/04/18 03:37:27;;;;;;;;;;;;;;;17.93;47.21;99328.38;5386655;26;1234;-50
2024/04/18 03:39:52;;;;;;;;;;;;;;;17.05;48.05;99331.75;5386471;26;1826;-49
2024/04/18 03:42:18;;;;;;;;;;;;;;;16.86;47.16;99307.22;5386720;26;1268;-50
2024/04/18 03:44:53;;;;;;;;;;;;;;;16.72;46.44;99319.03;5386920;26;1314;-50
2024/04/18 03:47:18;;;;;;;;;;;;;;;16.64;46.02;99284.09;5393765;26;2922;-48
2024/04/18 03:50:03;;;;;;;;;;;;;;;16.53;45.81;99304.66;5386343;26;1500;-49
2024/04/18 03:52:40;;;;;;;;;;;;;;;16.45;45.36;99310.88;5386010;26;1244;-50
2024/04/18 03:55:24;;;;;;;;;;;;;;;17.59;46.91;99318.84;5386011;26;1289;-51
2024/04/18 03:57:50;;;;;;;;;;;;;;;16.96;48.00;99331.69;5355677;26;1171;-51
2024/04/18 04:00:35;;;;;;;;;;;;;;;16.69;47.48;99333.38;5384209;26;1856;-48
2024/04/18 04:03:01;;;;;;;;;;;;;;;16.68;46.50;99329.03;5385241;26;1188;-48
2024/04/18 04:05:27;;;;;;;;;;;;;;;17.37;46.03;99338.13;5385621;26;1131;-50
2024/04/18 04:07:52;;;;;;;;;;;;;;;17.44;45.74;99341.22;5385593;26;1052;-49
2024/04/18 04:10:37;;;;;;;;;;;;;;;17.10;47.00;99324.19;5385905;26;1315;-49
2024/04/18 04:13:02;;;;;;;;;;;;;;;16.95;47.56;99313.59;5385994;26;1169;-47
2024/04/18 04:15:49;;;;;;;;;;;;;;;16.73;48.30;99295.97;5366832;26;1451;-46
2024/04/18 04:18:33;;;;;;;;;;;;;;;16.68;48.61;99301.56;5386044;26;2948;-49
2024/04/18 04:21:17;;;;;;;;;;;;;;;16.54;49.16;99292.59;5375399;26;1840;-52
2024/04/18 04:23:45;;;;;;;;;;;;;;;16.43;49.47;99284.56;5385675;26;1280;-50
2024/04/18 04:26:10;;;;;;;;;;;;;;;16.35;49.75;99276.25;5385124;26;1354;-45
2024/04/18 04:28:36;;;;;;;;;;;;;;;16.26;50.09;99248.75;5385070;26;1399;-49
2024/04/18 04:31:01;;;;;;;;;;;;;;;16.14;50.36;99243.78;5382479;26;1176;-48
2024/04/18 04:33:27;;;;;;;;;;;;;;;16.10;50.61;99250.19;5385249;26;1259;-47
2024/04/18 04:35:53;;;;;;;;;;;;;;;16.05;50.73;99251.94;5385028;26;1356;-46
2024/04/18 04:38:18;;;;;;;;;;;;;;;15.98;50.93;99245.25;5385086;26;1140;-46
2024/04/18 04:40:44;;;;;;;;;;;;;;;17.38;48.05;99247.13;5385190;26;1833;-48
2024/04/18 04:43:09;;;;;;;;;;;;;;;16.99;49.01;99256.94;5384739;26;1248;-47
2024/04/18 04:45:35;;;;;;;;;;;;;;;16.54;50.16;99276.13;5377305;26;1223;-51
2024/04/18 04:48:03;;;;;;;;;;;;;;;16.32;50.75;99285.91;5385125;26;2796;-48
2024/04/18 04:50:29;;;;;;;;;;;;;;;16.20;50.87;99324.84;5384820;26;1143;-47
2024/04/18 04:53:13;;;;;;;;;;;;;;;16.14;51.25;99317.03;5385250;26;1153;-48
2024/04/18 04:55:57;;;;;;;;;;;;;;;16.06;51.70;99291.97;5384352;26;1295;-49
2024/04/18 04:58:23;;;;;;;;;;;;;;;17.63;48.18;99275.06;5384688;26;1270;-47
2024/04/18 05:00:49;;;;;;;;;;;;;;;17.07;49.36;99269.09;5384907;26;1876;-46
2024/04/18 05:03:34;;;;;;;;;;;;;;;16.62;50.51;99253.44;5385791;26;1349;-52
2024/04/18 05:06:19;;;;;;;;;;;;;;;16.39;51.38;99289.03;5385269;26;1485;-52
2024/04/18 05:09:05;;;;;;;;;;;;;;;16.24;51.72;99325.88;5384666;26;1666;-49
2024/04/18 05:11:31;;;;;;;;;;;;;;;16.18;51.79;99315.31;5385181;26;1283;-48
2024/04/18 05:13:57;;;;;;;;;;;;;;;17.72;48.22;99317.13;5385487;26;1433;-47
2024/04/18 05:16:42;;;;;;;;;;;;;;;17.09;49.67;99308.03;5384820;26;1398;-48
2024/04/18 05:19:10;;;;;;;;;;;;;;;16.65;50.89;99324.16;5385136;26;1860;-49
2024/04/18 05:21:36;;;;;;;;;;;;;;;16.46;51.37;99328.97;5385419;26;1307;-50
2024/04/18 05:24:21;;;;;;;;;;;;;;;16.33;51.79;99322.41;5385538;26;1193;-48
2024/04/18 05:26:46;;;;;;;;;;;;;;;16.22;52.03;99327.28;5361736;26;1209;-49
2024/04/18 05:31:57;;;;;;;;;;;;;;;17.97;48.30;99327.78;5384433;26;1180;-49
2024/04/18 05:34:23;;;;;;;;;;;;;;;17.04;50.60;99328.22;5384573;26;1156;-49
2024/04/18 05:36:48;;;;;;;;;;;;;;;16.67;51.44;99332.06;5385094;26;1324;-49
2024/04/18 05:39:14;;;;;;;;;;;;;;;16.54;51.66;99333.75;5384979;26;1874;-52
2024/04/18 05:41:39;;;;;;;;;;;;;;;16.38;51.98;99347.78;5354538;26;1187;-48
2024/04/18 05:44:25;;;;;;;;;;;;;;;17.80;48.92;99351.28;5384274;26;1429;-53
2024/04/18 05:46:50;;;;;;;;;;;;;;;17.19;50.37;99370.94;5384391;26;1136;-51
2024/04/18 05:49:16;;;;;;;;;;;;;;;16.75;51.48;99376.06;5384942;26;1279;-51
2024/04/18 05:51:42;;;;;;;;;;;;;;;16.61;51.67;99383.53;5385045;26;1211;-53
2024/04/18 05:54:26;;;;;;;;;;;;;;;16.42;52.09;99375.41;5384428;26;1109;-50
2024/04/18 05:57:04;;;;;;;;;;;;;;;16.53;52.15;99382.31;5384572;26;1503;-47
2024/04/18 05:59:48;;;;;;;;;;;;;;;17.77;48.84;99385.72;5384997;26;1837;-51
2024/04/18 06:02:14;;;;;;;;;;;;;;;16.97;51.08;99388.25;5384592;26;1274;-49
2024/04/18 06:04:41;;;;;;;;;;;;;;;16.57;51.93;99383.31;5384618;26;1248;-52
2024/04/18 06:07:25;;;;;;;;;;;;;;;16.45;52.21;99384.97;5384280;26;1267;-50
2024/04/18 06:09:51;;;;;;;;;;;;;;;16.29;52.56;99366.06;5384449;26;1142;-51
2024/04/18 06:12:17;;;;;;;;;;;;;;;17.41;50.35;99383.88;5384318;26;1258;-53
2024/04/18 06:14:42;;;;;;;;;;;;;;;17.34;50.30;99388.22;5384413;26;1136;-51
2024/04/18 06:17:08;;;;;;;;;;;;;;;16.80;51.65;99391.59;5384156;26;1270;-50
2024/04/18 06:19:54;;;;;;;;;;;;;;;16.47;52.38;99401.94;5382551;26;1853;-49
2024/04/18 06:22:29;;;;;;;;;;;;;;;16.30;52.72;99400.63;5384332;26;1279;-50
2024/04/18 06:25:13;;;;;;;;;;;;;;;16.17;52.89;99402.25;5388677;26;1343;-47
2024/04/18 06:27:38;;;;;;;;;;;;;;;16.08;53.10;99410.34;5384055;26;1192;-50
2024/04/18 06:30:04;;;;;;;;;;;;;;;17.55;50.20;99408.53;5384307;26;1212;-51
2024/04/18 06:32:29;;;;;;;;;;;;;;;17.25;50.66;99407.34;5384120;26;1374;-56
2024/04/18 06:34:55;;;;;;;;;;;;;;;16.68;52.00;99430.56;5383821;26;1160;-56
2024/04/18 06:37:21;;;;;;;;;;;;;;;16.43;52.80;99429.16;5384093;26;1211;-53
2024/04/18 06:39:46;;;;;;;;;;;;;;;16.29;52.96;99426.41;5384335;26;1877;-53
2024/04/18 06:42:12;;;;;;;;;;;;;;;16.13;53.24;99438.78;5384189;26;1172;-53
2024/04/18 06:44:37;;;;;;;;;;;;;;;17.58;50.37;99445.59;5385267;26;1269;-47
2024/04/18 06:47:03;;;;;;;;;;;;;;;17.15;51.14;99435.06;5387674;26;1341;-54
2024/04/18 06:49:28;;;;;;;;;;;;;;;16.71;52.24;99438.19;5387270;26;1297;-50
2024/04/18 06:51:54;;;;;;;;;;;;;;;16.54;52.60;99440.75;5387157;26;1140;-54
2024/04/18 06:54:19;;;;;;;;;;;;;;;16.41;52.80;99439.63;5387205;26;1113;-52
2024/04/18 06:56:45;;;;;;;;;;;;;;;16.47;52.87;99443.09;5387199;26;1255;-54
2024/04/18 06:59:12;;;;;;;;;;;;;;;17.93;49.46;99434.84;5387018;26;1846;-53
2024/04/18 07:01:40;;;;;;;;;;;;;;;17.10;51.49;99439.56;5387182;26;1481;-57
2024/04/18 07:04:05;;;;;;;;;;;;;;;16.66;52.41;99445.72;5386972;26;1167;-52
2024/04/18 07:06:31;;;;;;;;;;;;;;;16.44;52.96;99450.00;5387181;26;1180;-54
2024/04/18 07:09:03;;;;;;;;;;;;;;;16.32;53.11;99447.75;5386573;26;1133;-57
2024/04/18 07:11:46;;;;;;;;;;;;;;;16.24;53.02;99459.44;5387196;26;1175;-54
2024/04/18 07:14:12;;;;;;;;;;;;;;;16.61;52.92;99460.38;5387211;26;1350;-56
2024/04/18 07:16:37;;;;;;;;;;;;;;;17.70;50.09;99440.34;5387020;26;1132;-56
2024/04/18 07:19:21;;;;;;;;;;;;;;;16.81;52.36;99450.88;5386935;26;1841;-56
2024/04/18 07:21:53;;;;;;;;;;;;;;;16.53;52.94;99452.84;5386683;26;1251;-53
2024/04/18 07:24:19;;;;;;;;;;;;;;;16.32;53.36;99458.72;5387017;26;1275;-51
2024/04/18 07:26:45;;;;;;;;;;;;;;;16.20;53.52;99456.50;5386736;26;1143;-52
2024/04/18 07:29:10;;;;;;;;;;;;;;;16.88;52.63;99476.00;5386738;26;1136;-53
2024/04/18 07:31:36;;;;;;;;;;;;;;;17.55;50.52;99471.75;5386344;26;1232;-54
2024/04/18 07:34:13;;;;;;;;;;;;;;;16.82;52.57;99487.41;5386710;26;1099;-53
2024/04/18 07:36:39;;;;;;;;;;;;;;;16.55;53.08;99495.34;5386524;26;1160;-53
2024/04/18 07:39:05;;;;;;;;;;;;;;;16.37;53.41;99482.53;5386485;26;1879;-55
2024/04/18 07:41:30;;;;;;;;;;;;;;;16.54;53.22;99490.16;5349621;26;1223;-54
2024/04/18 07:43:56;;;;;;;;;;;;;;;17.95;49.69;99482.91;5373262;26;1247;-52
2024/04/18 07:46:26;;;;;;;;;;;;;;;17.09;51.81;99487.38;5386223;26;1160;-55
2024/04/18 07:48:51;;;;;;;;;;;;;;;16.67;52.83;99494.81;5386483;26;1188;-53
2024/04/18 07:51:17;;;;;;;;;;;;;;;16.42;53.37;99485.97;5386144;26;1220;-50
2024/04/18 07:53:42;;;;;;;;;;;;;;;16.29;53.51;99478.53;5386957;26;1242;-53
2024/04/18 07:56:08;;;;;;;;;;;;;;;16.38;53.60;99484.97;5409135;26;1156;-54
2024/04/18 07:58:34;;;;;;;;;;;;;;;17.85;50.34;99493.31;5385735;26;1140;-53
2024/04/18 08:00:59;;;;;;;;;;;;;;;16.98;52.24;99493.41;5355356;26;1865;-54
2024/04/18 08:03:25;;;;;;;;;;;;;;;16.63;53.08;99499.28;5386209;26;1168;-54
2024/04/18 08:05:50;;;;;;;;;;;;;;;16.48;53.24;99499.59;5386626;26;1275;-49
2024/04/18 08:08:16;;;;;;;;;;;;;;;16.29;53.54;99503.22;5386411;26;1386;-51
2024/04/18 08:10:42;;;;;;;;;;;;;;;16.38;53.64;99495.94;5385845;26;1311;-54
2024/04/18 08:13:08;;;;;;;;;;;;;;;17.85;50.27;99501.56;5386518;26;1329;-52
2024/04/18 08:15:39;;;;;;;;;;;;;;;17.07;52.17;99505.28;5386011;26;1195;-56
2024/04/18 08:18:05;;;;;;;;;;;;;;;16.65;53.09;99504.47;5385989;26;1163;-52
2024/04/18 08:20:31;;;;;;;;;;;;;;;16.47;53.45;99507.00;5355056;26;1837;-57
2024/04/18 08:22:57;;;;;;;;;;;;;;;16.31;53.51;99505.66;5386058;26;1170;-54
2024/04/18 08:25:23;;;;;;;;;;;;;;;16.25;53.38;99503.00;5386259;26;1375;-54
2024/04/18 08:27:49;;;;;;;;;;;;;;;17.30;51.87;99506.16;5385522;26;1227;-54
2024/04/18 08:30:15;;;;;;;;;;;;;;;17.61;50.77;99497.19;5386087;26;1172;-52
2024/04/18 08:32:40;;;;;;;;;;;;;;;16.83;52.93;99498.06;5385367;26;1120;-53
2024/04/18 08:35:06;;;;;;;;;;;;;;;16.57;53.40;99500.50;5386302;26;1240;-54
2024/04/18 08:37:31;;;;;;;;;;;;;;;16.40;53.73;99520.31;5385883;26;1174;-55
2024/04/18 08:39:56;;;;;;;;;;;;;;;16.31;53.68;99531.16;5385631;26;1865;-55
2024/04/18 08:42:23;;;;;;;;;;;;;;;16.24;53.71;99528.00;5385670;26;1180;-56
2024/04/18 08:44:54;;;;;;;;;;;;;;;17.51;51.50;99528.47;5385073;26;1129;-56
2024/04/18 08:47:20;;;;;;;;;;;;;;;17.36;51.49;99531.56;5385775;26;1203;-54
2024/04/18 08:49:46;;;;;;;;;;;;;;;16.79;52.85;99531.91;5385404;26;1343;-52
2024/04/18 08:52:12;;;;;;;;;;;;;;;16.50;53.58;99524.81;5385349;26;1333;-54
2024/04/18 08:54:37;;;;;;;;;;;;;;;16.39;53.75;99533.22;5355075;26;1236;-54
2024/04/18 08:57:04;;;;;;;;;;;;;;;16.31;53.81;99525.66;5385429;26;1306;-53
2024/04/18 08:59:29;;;;;;;;;;;;;;;16.17;54.03;99536.63;5354958;26;1876;-53
2024/04/18 09:01:55;;;;;;;;;;;;;;;16.14;54.18;99533.66;5354550;26;1216;-59
2024/04/18 09:04:20;;;;;;;;;;;;;;;17.61;51.61;99524.69;5354684;26;1281;-56
2024/04/18 09:06:46;;;;;;;;;;;;;;;17.31;52.03;99535.25;5385480;26;1199;-57
2024/04/18 09:09:16;;;;;;;;;;;;;;;16.74;53.42;99536.38;5385607;26;1270;-55
2024/04/18 09:11:44;;;;;;;;;;;;;;;16.51;53.95;99534.63;5385726;26;1314;-52
2024/04/18 09:14:09;;;;;;;;;;;;;;;16.36;54.20;99525.59;5385250;26;1282;-56
2024/04/18 09:16:35;;;;;;;;;;;;;;;16.24;54.29;99530.75;5385286;26;1278;-54
2024/04/18 09:19:00;;;;;;;;;;;;;;;16.33;54.46;99531.69;5385439;26;1829;-55
2024/04/18 09:21:29;;;;;;;;;;;;;;;17.84;51.32;99522.75;5385183;26;1274;-57
2024/04/18 09:23:56;;;;;;;;;;;;;;;17.01;53.22;99528.47;5325659;26;1276;-55
2024/04/18 09:26:25;;;;;;;;;;;;;;;16.73;54.08;99525.72;5384668;26;1267;-52
2024/04/18 09:28:50;;;;;;;;;;;;;;;16.50;54.21;99530.28;5385094;26;1223;-52
2024/04/18 09:31:19;;;;;;;;;;;;;;;16.37;54.56;99532.72;5385223;26;1139;-52
2024/04/18 09:33:45;;;;;;;;;;;;;;;16.31;54.59;99533.91;5384888;26;1252;-55
2024/04/18 09:36:11;;;;;;;;;;;;;;;16.23;54.32;99543.66;5354332;26;1253;-53
2024/04/18 09:38:36;;;;;;;;;;;;;;;16.11;54.53;99537.03;5325500;26;1227;-53
2024/04/18 09:41:07;;;;;;;;;;;;;;;17.33;53.30;99551.44;5354099;26;1813;-55
2024/04/18 09:43:41;;;;;;;;;;;;;;;17.44;52.75;99548.13;5354404;26;1358;-54
2024/04/18 09:46:07;;;;;;;;;;;;;;;16.72;54.45;99552.34;5353850;26;1290;-55
2024/04/18 09:48:33;;;;;;;;;;;;;;;16.56;54.62;99557.34;5384867;26;1293;-53
2024/04/18 09:50:58;;;;;;;;;;;;;;;16.35;55.05;99540.41;5384967;26;1353;-49
2024/04/18 09:53:24;;;;;;;;;;;;;;;16.32;55.02;99552.00;5384824;26;1100;-51
2024/04/18 09:55:50;;;;;;;;;;;;;;;16.82;54.50;99548.59;5384550;26;1258;-52
2024/04/18 09:58:17;;;;;;;;;;;;;;;17.82;52.10;99555.25;5384444;26;1271;-53
2024/04/18 10:00:43;;;;;;;;;;;;;;;16.96;54.18;99559.63;5384782;26;1838;-52
2024/04/18 10:03:09;;;;;;;;;;;;;;;16.67;54.46;99571.66;5384802;26;1244;-49
2024/04/18 10:05:35;;;;;;;;;;;;;;;16.54;54.80;99558.75;5384273;26;1230;-53
2024/04/18 10:08:00;;;;;;;;;;;;;;;16.46;54.63;99553.97;5384821;26;1252;-53
2024/04/18 10:10:26;;;;;;;;;;;;;;;16.25;54.78;99557.88;5384112;26;1171;-54
2024/04/18 10:12:52;;;;;;;;;;;;;;;16.22;55.05;99552.19;5384615;26;1270;-54
2024/04/18 10:15:23;;;;;;;;;;;;;;;17.69;52.78;99559.66;5383374;26;1495;-51
2024/04/18 10:17:49;;;;;;;;;;;;;;;17.33;53.44;99552.22;5355074;26;1285;-52
2024/04/18 10:20:14;;;;;;;;;;;;;;;16.80;54.56;99566.50;5386794;26;1873;-48
2024/04/18 10:22:40;;;;;;;;;;;;;;;16.56;54.91;99564.75;5387672;26;1338;-51
2024/04/18 10:25:16;;;;;;;;;;;;;;;16.47;54.68;99566.56;5387572;26;1299;-53
2024/04/18 10:27:42;;;;;;;;;;;;;;;16.41;54.63;99566.66;5388043;26;1184;-48
2024/04/18 10:30:12;;;;;;;;;;;;;;;16.20;54.81;99570.84;5356558;26;1258;-50
2024/04/18 10:32:38;;;;;;;;;;;;;;;16.69;54.75;99576.84;5387877;26;1225;-50
2024/04/18 10:35:03;;;;;;;;;;;;;;;17.89;52.29;99561.16;5356040;26;1293;-52
2024/04/18 10:37:29;;;;;;;;;;;;;;;17.06;54.01;99569.56;5351224;26;1310;-50
2024/04/18 10:39:58;;;;;;;;;;;;;;;16.70;54.64;99582.03;5387022;26;1829;-52
2024/04/18 10:42:24;;;;;;;;;;;;;;;16.49;54.84;99586.28;5357696;26;1367;-53
2024/04/18 10:44:50;;;;;;;;;;;;;;;16.43;54.67;99591.03;5387820;26;1252;-52
2024/04/18 10:47:21;;;;;;;;;;;;;;;16.24;54.87;99588.34;5386486;26;1069;-50
2024/04/18 10:49:47;;;;;;;;;;;;;;;16.13;55.04;99595.13;5387599;26;1176;-47
2024/04/18 10:52:16;;;;;;;;;;;;;;;17.26;53.76;99593.06;5387324;26;1144;-49
2024/04/18 10:54:41;;;;;;;;;;;;;;;17.37;53.08;99586.22;5387220;26;1199;-51
2024/04/18 10:57:10;;;;;;;;;;;;;;;16.77;54.45;99590.69;5387077;26;1370;-51
2024/04/18 10:59:35;;;;;;;;;;;;;;;16.50;55.04;99590.66;5356341;26;1849;-50
2024/04/18 11:02:04;;;;;;;;;;;;;;;16.37;54.85;99582.09;5387399;26;1243;-52
2024/04/18 11:04:30;;;;;;;;;;;;;;;16.28;54.74;99583.88;5387314;26;1273;-54
2024/04/18 11:06:55;;;;;;;;;;;;;;;16.20;54.69;99593.63;5386637;26;1251;-53
2024/04/18 11:09:24;;;;;;;;;;;;;;;17.47;53.12;99593.44;5387476;26;1358;-51
2024/04/18 11:11:49;;;;;;;;;;;;;;;17.40;52.92;99591.13;5386786;26;1055;-55
2024/04/18 11:14:16;;;;;;;;;;;;;;;16.79;54.31;99597.81;5356177;26;1169;-53
2024/04/18 11:16:41;;;;;;;;;;;;;;;16.58;54.59;99606.44;5387017;26;1350;-50
2024/04/18 11:19:07;;;;;;;;;;;;;;;16.47;54.39;99613.22;5387321;26;1826;-51
2024/04/18 11:21:33;;;;;;;;;;;;;;;16.30;54.80;99598.13;5387130;26;1354;-50
2024/04/18 11:23:58;;;;;;;;;;;;;;;16.77;54.44;99600.84;5386768;26;1040;-50
2024/04/18 11:26:30;;;;;;;;;;;;;;;17.77;51.98;99613.94;5386671;26;1289;-55
2024/04/18 11:28:56;;;;;;;;;;;;;;;16.95;53.90;99615.66;5386394;26;1168;-54
2024/04/18 11:31:21;;;;;;;;;;;;;;;16.65;54.55;99615.09;5385559;26;1226;-55
2024/04/18 11:33:47;;;;;;;;;;;;;;;16.51;54.50;99619.72;5387097;26;1231;-52
2024/04/18 11:36:15;;;;;;;;;;;;;;;16.29;54.75;99621.19;5355196;26;1047;-49
2024/04/18 11:38:41;;;;;;;;;;;;;;;16.24;54.52;99624.00;5355443;26;1287;-52
2024/04/18 11:41:08;;;;;;;;;;;;;;;16.13;54.62;99625.28;5386458;26;1829;-51
2024/04/18 11:43:33;;;;;;;;;;;;;;;17.51;52.61;99618.38;5386936;26;1274;-50
2024/04/18 11:45:59;;;;;;;;;;;;;;;17.14;53.42;99625.72;5386781;26;1184;-51
2024/04/18 11:48:24;;;;;;;;;;;;;;;16.72;54.23;99625.66;5386106;26;1048;-50
2024/04/18 11:50:50;;;;;;;;;;;;;;;16.51;54.49;99627.94;5386641;26;1277;-49
2024/04/18 11:53:15;;;;;;;;;;;;;;;16.31;54.69;99631.84;5386467;26;1116;-50
2024/04/18 11:55:41;;;;;;;;;;;;;;;16.25;54.51;99633.88;5386515;26;1288;-50
2024/04/18 11:58:25;;;;;;;;;;;;;;;16.79;54.36;99637.06;5386254;26;1267;-51
2024/04/18 12:00:50;;;;;;;;;;;;;;;17.84;51.77;99638.25;5386737;26;1830;-50
2024/04/18 12:03:16;;;;;;;;;;;;;;;16.91;53.91;99634.69;5386761;26;1208;-49
2024/04/18 12:05:53;;;;;;;;;;;;;;;16.58;54.48;99636.63;5386703;26;1278;-50
2024/04/18 12:08:19;;;;;;;;;;;;;;;16.39;54.76;99647.63;5385689;26;1148;-51
2024/04/18 12:10:44;;;;;;;;;;;;;;;16.45;54.71;99648.34;5386132;26;1301;-47
2024/04/18 12:13:10;;;;;;;;;;;;;;;17.85;51.93;99639.06;5386725;26;1263;-48
2024/04/18 12:15:50;;;;;;;;;;;;;;;17.18;53.21;99640.47;5386535;26;1176;-50
2024/04/18 12:18:27;;;;;;;;;;;;;;;16.79;53.97;99630.75;5385515;26;1362;-47
2024/04/18 12:20:53;;;;;;;;;;;;;;;16.61;54.15;99641.50;5386064;26;1853;-49
2024/04/18 12:23:33;;;;;;;;;;;;;;;16.38;54.44;99638.59;5386069;26;1346;-48
2024/04/18 12:26:04;;;;;;;;;;;;;;;16.34;54.37;99648.53;5386242;26;1223;-50
2024/04/18 12:28:42;;;;;;;;;;;;;;;16.19;54.26;99640.56;5365249;26;1116;-53
2024/04/18 12:31:08;;;;;;;;;;;;;;;17.36;53.02;99633.25;5385551;26;1279;-46
2024/04/18 12:33:47;;;;;;;;;;;;;;;17.22;53.13;99644.22;5386155;26;1163;-52
2024/04/18 12:36:13;;;;;;;;;;;;;;;16.71;54.10;99649.53;5385698;26;1215;-53
2024/04/18 12:38:39;;;;;;;;;;;;;;;16.53;54.42;99655.91;5385667;26;1270;-51
2024/04/18 12:41:05;;;;;;;;;;;;;;;16.37;54.47;99650.69;5385762;26;1850;-49
2024/04/18 12:43:30;;;;;;;;;;;;;;;16.22;54.59;99653.66;5385768;26;1355;-52
2024/04/18 12:45:56;;;;;;;;;;;;;;;17.64;52.28;99658.75;5385856;26;1204;-47
2024/04/18 12:48:40;;;;;;;;;;;;;;;17.14;53.25;99664.16;5385475;26;1076;-51
2024/04/18 12:51:06;;;;;;;;;;;;;;;16.68;54.20;99652.91;5377753;26;1286;-46
2024/04/18 12:53:40;;;;;;;;;;;;;;;16.52;54.35;99670.75;5372722;26;1222;-45
2024/04/18 12:56:06;;;;;;;;;;;;;;;16.38;54.49;99663.28;5385606;26;1160;-50
2024/04/18 12:58:32;;;;;;;;;;;;;;;16.24;54.58;99665.13;5385519;26;1238;-52
2024/04/18 13:01:09;;;;;;;;;;;;;;;16.75;54.41;99664.28;5385484;26;1826;-52
2024/04/18 13:03:37;;;;;;;;;;;;;;;17.75;51.93;99668.44;5385631;26;1226;-51
2024/04/18 13:06:22;;;;;;;;;;;;;;;16.89;53.82;99674.53;5385862;26;1244;-50
2024/04/18 13:08:47;;;;;;;;;;;;;;;16.58;54.55;99686.03;5385568;26;1222;-46
2024/04/18 13:11:33;;;;;;;;;;;;;;;16.42;54.43;99678.03;5385057;26;1770;-47
2024/04/18 13:14:04;;;;;;;;;;;;;;;16.33;54.44;99674.34;5385226;26;1330;-44